Time;durP1;ratioP1;P1;durP2;ratioP2;P2;SDS_P1;SDS_P2;PMS_P1;PMS_P2;Temp;Humidity;BMP_temperature;BMP_pressure;BME280_temperature;BME280_humidity;BME280_pressure;Samples;Min_cycle;Max_cycle;Signal;HPM_P1;HPM_P2
2023/09/15 00:00:56;;;;;;;13.43;11.18;;;20.90;90.80;;;;;;4973414;28;20027;-59
2023/09/15 00:03:22;;;;;;;16.38;11.98;;;20.80;90.70;;;;;;4973120;28;20038;-59
2023/09/15 00:05:48;;;;;;;15.50;12.38;;;20.90;90.80;;;;;;4973041;28;20027;-59
2023/09/15 00:08:13;;;;;;;13.18;11.63;;;20.90;90.70;;;;;;4986108;28;20034;-59
2023/09/15 00:10:40;;;;;;;13.18;11.75;;;20.90;90.80;;;;;;4992134;28;20498;-59
2023/09/15 00:13:06;;;;;;;12.73;11.38;;;20.90;90.80;;;;;;4992640;28;20026;-59
2023/09/15 00:15:32;;;;;;;12.65;11.32;;;20.90;91.00;;;;;;4992135;28;20022;-59
2023/09/15 00:17:58;;;;;;;13.77;12.30;;;20.90;91.00;;;;;;4992135;28;20080;-59
2023/09/15 00:20:25;;;;;;;13.18;11.38;;;21.00;91.00;;;;;;4991942;28;20450;-59
2023/09/15 00:22:55;;;;;;;13.25;11.55;;;21.00;91.00;;;;;;4991338;28;20058;-60
2023/09/15 00:25:27;;;;;;;13.50;11.68;;;21.00;91.10;;;;;;4991654;28;20034;-60
2023/09/15 00:27:57;;;;;;;14.60;11.30;;;21.00;91.20;;;;;;4992332;28;20042;-58
2023/09/15 00:30:24;;;;;;;13.57;12.18;;;21.00;91.10;;;;;;4991862;28;20090;-60
2023/09/15 00:32:51;;;;;;;17.02;11.80;;;21.00;91.10;;;;;;4992198;28;20053;-59
2023/09/15 00:35:23;;;;;;;13.80;11.82;;;21.00;91.10;;;;;;4991831;28;20095;-59
2023/09/15 00:37:50;;;;;;;15.15;11.75;;;21.00;91.10;;;;;;4990310;28;20030;-60
2023/09/15 00:40:20;;;;;;;15.05;11.73;;;21.10;91.20;;;;;;4991058;28;20030;-60
2023/09/15 00:42:48;;;;;;;14.07;12.50;;;21.00;91.10;;;;;;4991209;28;20115;-59
2023/09/15 00:45:14;;;;;;;13.85;12.23;;;21.00;91.20;;;;;;4991795;28;20746;-60
2023/09/15 00:47:46;;;;;;;14.63;12.90;;;21.00;91.20;;;;;;4991906;28;20074;-60
2023/09/15 00:50:14;;;;;;;14.43;12.82;;;21.00;91.30;;;;;;4992099;28;20513;-60
2023/09/15 00:52:43;;;;;;;16.67;14.60;;;21.00;91.30;;;;;;4992151;28;20037;-60
2023/09/15 00:55:10;;;;;;;18.73;15.48;;;21.00;91.30;;;;;;4999779;28;20046;-60
2023/09/15 00:57:38;;;;;;;18.60;15.40;;;21.00;91.40;;;;;;5011410;28;20032;-60
2023/09/15 01:00:12;;;;;;;20.13;17.30;;;21.10;91.50;;;;;;5011431;28;20033;-60
2023/09/15 01:02:42;;;;;;;18.80;16.80;;;21.10;91.40;;;;;;5011551;28;20080;-60
2023/09/15 01:05:10;;;;;;;19.58;17.48;;;21.00;91.40;;;;;;5011572;28;20026;-60
2023/09/15 01:07:37;;;;;;;17.20;15.40;;;21.00;91.30;;;;;;5011328;28;20038;-60
2023/09/15 01:10:05;;;;;;;18.42;16.48;;;21.00;91.20;;;;;;5013383;28;20482;-60
2023/09/15 01:12:31;;;;;;;18.30;15.98;;;21.00;91.40;;;;;;5015176;28;20105;-60
2023/09/15 01:14:57;;;;;;;17.05;14.98;;;21.00;91.40;;;;;;5015244;28;20653;-60
2023/09/15 01:17:32;;;;;;;20.85;14.85;;;21.00;91.50;;;;;;5014963;28;20026;-59
2023/09/15 01:20:10;;;;;;;16.50;14.80;;;21.00;91.60;;;;;;5015088;28;20048;-61
2023/09/15 01:23:10;;;;;;;16.10;14.50;;;21.00;91.90;;;;;;5015457;28;20026;-59
2023/09/15 01:25:55;;;;;;;17.65;14.60;;;21.00;91.70;;;;;;5015095;28;20037;-60
2023/09/15 01:28:33;;;;;;;16.30;14.10;;;21.00;91.90;;;;;;5015134;28;20034;-60
2023/09/15 01:31:00;;;;;;;20.02;16.02;;;20.90;92.30;;;;;;5015036;28;20459;-61
2023/09/15 01:33:27;;;;;;;18.88;16.27;;;20.90;92.20;;;;;;5014731;28;20049;-60
2023/09/15 01:35:52;;;;;;;16.75;14.95;;;20.90;92.10;;;;;;5015037;28;20418;-60
2023/09/15 01:38:18;;;;;;;17.45;15.48;;;20.90;92.10;;;;;;5014603;28;20060;-60
2023/09/15 01:40:44;;;;;;;18.63;15.63;;;20.90;92.30;;;;;;5014749;28;20017;-60
2023/09/15 01:43:10;;;;;;;21.30;16.27;;;20.90;92.40;;;;;;5014627;28;20041;-60
2023/09/15 01:45:35;;;;;;;18.75;16.58;;;20.90;92.50;;;;;;5014822;28;20038;-60
2023/09/15 01:48:02;;;;;;;18.50;16.50;;;20.90;92.60;;;;;;5014348;28;20597;-59
2023/09/15 01:50:29;;;;;;;21.30;16.92;;;20.90;92.70;;;;;;5014630;28;20022;-61
2023/09/15 01:52:56;;;;;;;19.33;17.33;;;20.90;92.80;;;;;;5014115;28;20393;-60
2023/09/15 01:55:22;;;;;;;18.30;16.40;;;20.90;92.90;;;;;;5029179;28;20054;-60
2023/09/15 01:57:48;;;;;;;18.55;16.45;;;20.90;92.70;;;;;;5014162;28;20363;-60
2023/09/15 02:00:14;;;;;;;19.17;16.25;;;20.90;92.70;;;;;;5014183;28;20117;-60
2023/09/15 02:02:39;;;;;;;18.85;16.40;;;20.90;92.60;;;;;;5014196;28;20026;-60
2023/09/15 02:05:05;;;;;;;21.35;17.20;;;20.90;92.70;;;;;;5014750;28;20569;-61
2023/09/15 02:07:31;;;;;;;19.85;17.85;;;20.90;92.70;;;;;;5012696;28;20037;-60
2023/09/15 02:09:56;;;;;;;18.60;16.75;;;20.90;92.70;;;;;;5014396;28;20030;-61
2023/09/15 02:12:22;;;;;;;18.75;16.95;;;20.90;92.70;;;;;;5013781;28;20038;-59
2023/09/15 02:14:48;;;;;;;18.50;15.90;;;20.90;92.60;;;;;;5013990;28;20482;-61
2023/09/15 02:17:15;;;;;;;19.98;15.43;;;20.80;92.80;;;;;;4996384;28;20025;-59
2023/09/15 02:19:43;;;;;;;16.45;14.73;;;20.80;92.80;;;;;;5014145;28;20045;-60
2023/09/15 02:22:09;;;;;;;16.48;14.85;;;20.80;92.80;;;;;;5012720;28;20026;-60
2023/09/15 02:24:35;;;;;;;16.23;14.65;;;20.80;92.90;;;;;;5013688;28;20092;-60
2023/09/15 02:27:01;;;;;;;16.95;15.25;;;20.80;93.10;;;;;;5011983;28;20083;-60
2023/09/15 02:29:26;;;;;;;16.42;14.80;;;20.80;93.10;;;;;;5013086;28;20025;-59
2023/09/15 02:31:52;;;;;;;15.63;13.90;;;20.80;93.10;;;;;;5013495;28;20393;-61
2023/09/15 02:34:17;;;;;;;17.95;14.38;;;20.80;93.00;;;;;;5013580;28;20025;-60
2023/09/15 02:36:44;;;;;;;16.27;14.52;;;20.80;93.10;;;;;;5013312;28;20060;-59
2023/09/15 02:39:10;;;;;;;15.00;13.45;;;20.80;93.20;;;;;;5012799;28;20022;-60
2023/09/15 02:41:36;;;;;;;14.95;13.52;;;20.80;93.20;;;;;;5013455;28;20029;-60
2023/09/15 02:44:02;;;;;;;15.20;13.68;;;20.80;93.30;;;;;;5013590;28;20030;-60
2023/09/15 02:46:27;;;;;;;16.27;13.07;;;20.80;93.30;;;;;;5013566;28;20116;-61
2023/09/15 02:48:54;;;;;;;16.50;14.55;;;20.80;93.30;;;;;;5013056;28;20025;-61
2023/09/15 02:51:19;;;;;;;14.65;12.52;;;20.80;93.40;;;;;;5013351;28;20174;-60
2023/09/15 02:53:45;;;;;;;15.10;13.50;;;20.80;93.40;;;;;;5012731;28;20125;-60
2023/09/15 02:56:10;;;;;;;14.82;13.38;;;20.80;93.50;;;;;;5012790;28;20050;-60
2023/09/15 02:58:36;;;;;;;13.60;12.20;;;20.80;93.60;;;;;;5013050;28;20093;-60
2023/09/15 03:01:12;;;;;;;13.88;12.27;;;20.80;93.60;;;;;;5013496;28;20109;-60
2023/09/15 03:03:38;;;;;;;14.20;12.82;;;20.80;93.30;;;;;;5013151;28;20084;-60
2023/09/15 03:06:05;;;;;;;17.05;13.25;;;20.80;93.60;;;;;;5013193;28;20390;-60
2023/09/15 03:08:31;;;;;;;14.98;13.35;;;20.80;93.60;;;;;;5013172;28;20528;-60
2023/09/15 03:10:56;;;;;;;15.85;12.80;;;20.80;93.60;;;;;;5013214;28;20038;-60
2023/09/15 03:13:22;;;;;;;14.00;12.57;;;20.80;93.60;;;;;;5012819;28;20053;-60
2023/09/15 03:15:48;;;;;;;15.45;13.02;;;20.80;93.60;;;;;;5012855;28;20503;-60
2023/09/15 03:18:13;;;;;;;15.35;12.88;;;20.90;93.50;;;;;;5012987;28;20052;-60
2023/09/15 03:20:39;;;;;;;14.30;12.88;;;20.80;93.60;;;;;;5012649;28;20390;-60
2023/09/15 03:23:05;;;;;;;14.20;12.63;;;20.80;93.60;;;;;;5012841;28;20050;-61
2023/09/15 03:25:30;;;;;;;13.90;12.50;;;20.80;93.50;;;;;;5012634;28;20453;-60
2023/09/15 03:27:56;;;;;;;13.60;12.18;;;20.80;93.50;;;;;;5012497;28;20065;-58
2023/09/15 03:30:22;;;;;;;13.95;12.63;;;20.80;93.50;;;;;;5012698;28;20394;-61
2023/09/15 03:32:48;;;;;;;14.13;12.63;;;20.80;93.50;;;;;;5012605;28;20060;-61
2023/09/15 03:35:14;;;;;;;14.93;12.90;;;20.80;93.50;;;;;;5013314;28;20113;-61
2023/09/15 03:37:40;;;;;;;13.95;11.90;;;20.80;93.50;;;;;;5012827;28;20100;-61
2023/09/15 03:40:08;;;;;;;14.35;12.90;;;20.80;93.50;;;;;;5012465;28;20499;-60
2023/09/15 03:42:34;;;;;;;13.93;12.50;;;20.80;93.50;;;;;;5012670;28;20030;-61
2023/09/15 03:45:00;;;;;;;13.63;12.32;;;20.80;93.50;;;;;;5012418;28;20030;-61
2023/09/15 03:47:26;;;;;;;13.85;12.45;;;20.80;93.50;;;;;;5012569;28;20087;-61
2023/09/15 03:49:52;;;;;;;14.07;12.68;;;20.80;93.40;;;;;;5012157;28;20026;-58
2023/09/15 03:52:17;;;;;;;14.45;12.73;;;20.80;93.40;;;;;;5012207;28;20021;-58
2023/09/15 03:54:43;;;;;;;14.07;12.65;;;20.80;93.40;;;;;;5012142;28;20049;-60
2023/09/15 03:57:09;;;;;;;14.90;12.73;;;20.80;93.30;;;;;;5012061;28;20037;-59
2023/09/15 03:59:35;;;;;;;15.32;13.82;;;20.70;93.30;;;;;;5012530;28;20425;-59
2023/09/15 04:02:03;;;;;;;14.32;12.93;;;20.70;93.30;;;;;;5012061;28;20030;-58
2023/09/15 04:04:29;;;;;;;15.00;13.48;;;20.70;93.40;;;;;;5012471;28;20053;-59
2023/09/15 04:06:55;;;;;;;14.80;13.30;;;20.70;93.40;;;;;;5012308;28;20068;-57
2023/09/15 04:09:24;;;;;;;14.82;13.27;;;20.70;93.50;;;;;;5012254;28;20037;-58
2023/09/15 04:11:51;;;;;;;14.85;13.40;;;20.70;93.50;;;;;;5012275;28;20113;-59
2023/09/15 04:14:16;;;;;;;14.13;12.65;;;20.70;93.60;;;;;;5012376;28;20057;-59
2023/09/15 04:16:42;;;;;;;14.73;13.32;;;20.70;93.60;;;;;;5011933;28;20431;-59
2023/09/15 04:19:08;;;;;;;15.18;13.50;;;20.70;93.50;;;;;;5011830;28;20037;-60
2023/09/15 04:21:34;;;;;;;14.65;13.18;;;20.70;93.50;;;;;;5011778;28;20036;-59
2023/09/15 04:23:59;;;;;;;14.88;13.45;;;20.70;93.50;;;;;;5012105;28;20030;-59
2023/09/15 04:26:26;;;;;;;15.13;13.73;;;20.70;93.60;;;;;;5011923;28;20022;-59
2023/09/15 04:28:51;;;;;;;15.30;13.85;;;20.70;93.50;;;;;;5011574;28;20073;-58
2023/09/15 04:31:17;;;;;;;14.13;12.73;;;20.80;93.50;;;;;;5011202;28;20022;-60
2023/09/15 04:33:44;;;;;;;15.63;14.13;;;20.80;93.40;;;;;;5010960;28;20053;-59
2023/09/15 04:36:09;;;;;;;14.55;13.10;;;20.80;93.30;;;;;;5011541;28;20064;-60
2023/09/15 04:38:35;;;;;;;17.95;13.27;;;20.80;93.30;;;;;;5011441;28;20501;-60
2023/09/15 04:41:00;;;;;;;15.40;13.82;;;20.80;93.30;;;;;;5011527;28;20033;-60
2023/09/15 04:43:29;;;;;;;15.68;14.07;;;20.80;93.30;;;;;;5011366;28;20512;-59
2023/09/15 04:45:56;;;;;;;15.20;13.43;;;20.80;93.70;;;;;;5015442;28;20109;-59
2023/09/15 04:48:22;;;;;;;15.50;14.02;;;20.80;93.40;;;;;;5015603;28;20030;-60
2023/09/15 04:50:47;;;;;;;15.27;13.77;;;20.90;93.30;;;;;;5015403;28;20164;-60
2023/09/15 04:53:14;;;;;;;15.73;14.20;;;20.90;93.20;;;;;;5014759;28;20040;-60
2023/09/15 04:55:40;;;;;;;16.27;14.68;;;20.90;93.20;;;;;;5014749;28;20153;-59
2023/09/15 04:58:06;;;;;;;16.42;14.82;;;20.90;93.20;;;;;;5012420;28;20116;-59
2023/09/15 05:00:34;;;;;;;18.27;16.48;;;20.90;93.20;;;;;;5013002;28;20042;-60
2023/09/15 05:03:00;;;;;;;17.98;16.15;;;20.90;93.00;;;;;;5013622;28;20022;-60
2023/09/15 05:05:26;;;;;;;16.88;15.35;;;20.90;92.90;;;;;;5013311;28;20421;-60
2023/09/15 05:07:52;;;;;;;19.02;17.05;;;20.90;93.00;;;;;;4995265;28;20524;-60
2023/09/15 05:10:18;;;;;;;18.33;16.63;;;20.90;93.20;;;;;;5014844;28;20034;-60
2023/09/15 05:12:44;;;;;;;19.60;17.70;;;20.90;93.30;;;;;;5014907;28;20385;-60
2023/09/15 05:15:10;;;;;;;21.00;18.60;;;21.00;93.40;;;;;;5011300;28;20025;-60
2023/09/15 05:17:37;;;;;;;20.52;18.50;;;21.00;93.20;;;;;;5011962;28;20030;-60
2023/09/15 05:20:03;;;;;;;20.58;18.52;;;21.00;93.20;;;;;;5014590;28;20485;-61
2023/09/15 05:22:28;;;;;;;21.23;19.13;;;21.10;93.20;;;;;;5012175;28;20029;-60
2023/09/15 05:24:55;;;;;;;20.67;18.63;;;21.10;93.20;;;;;;5012623;28;20061;-59
2023/09/15 05:27:21;;;;;;;19.98;17.98;;;21.10;93.10;;;;;;5012830;28;20026;-60
2023/09/15 05:29:46;;;;;;;20.63;18.40;;;21.10;93.00;;;;;;5014599;28;20084;-60
2023/09/15 05:32:12;;;;;;;20.33;18.33;;;21.20;93.10;;;;;;5014615;28;20048;-60
2023/09/15 05:34:38;;;;;;;21.63;19.48;;;21.20;93.10;;;;;;5011199;28;20362;-60
2023/09/15 05:37:04;;;;;;;20.17;18.17;;;21.20;93.10;;;;;;5012552;28;20034;-59
2023/09/15 05:39:32;;;;;;;21.13;18.83;;;21.20;93.10;;;;;;4995401;28;20459;-61
2023/09/15 05:41:58;;;;;;;22.98;20.58;;;21.20;93.10;;;;;;5013485;28;20084;-61
2023/09/15 05:44:24;;;;;;;24.13;21.65;;;21.20;93.10;;;;;;5012108;28;20038;-59
2023/09/15 05:46:50;;;;;;;26.48;23.60;;;21.10;93.00;;;;;;5012846;28;20021;-60
2023/09/15 05:49:16;;;;;;;25.67;22.67;;;21.10;93.10;;;;;;5013908;28;20029;-61
2023/09/15 05:51:41;;;;;;;27.23;24.35;;;21.20;93.20;;;;;;5010623;28;20061;-61
2023/09/15 05:54:07;;;;;;;27.02;24.00;;;21.20;93.30;;;;;;4995076;28;20034;-60
2023/09/15 05:56:33;;;;;;;28.25;25.20;;;21.20;93.30;;;;;;5013385;28;20070;-59
2023/09/15 05:58:58;;;;;;;27.10;24.20;;;21.10;93.40;;;;;;5013016;28;20394;-61
2023/09/15 06:01:24;;;;;;;28.10;25.20;;;21.10;93.40;;;;;;5012801;28;20030;-61
2023/09/15 06:03:50;;;;;;;30.20;26.30;;;21.10;93.50;;;;;;5013696;28;20030;-61
2023/09/15 06:06:19;;;;;;;29.27;26.23;;;21.10;93.70;;;;;;5013451;28;20165;-61
2023/09/15 06:08:44;;;;;;;28.92;25.83;;;21.10;93.50;;;;;;5013866;28;20033;-62
2023/09/15 06:11:10;;;;;;;29.67;26.63;;;21.00;93.60;;;;;;5014253;28;20045;-60
2023/09/15 06:13:37;;;;;;;30.00;26.85;;;21.00;93.70;;;;;;5013795;28;20030;-60
2023/09/15 06:16:05;;;;;;;33.15;28.08;;;21.00;93.90;;;;;;5014057;28;20377;-60
2023/09/15 06:18:32;;;;;;;34.00;30.38;;;20.90;93.90;;;;;;5013249;28;20026;-60
2023/09/15 06:20:57;;;;;;;30.38;27.17;;;20.90;93.90;;;;;;5014213;28;20065;-61
2023/09/15 06:23:24;;;;;;;31.38;27.95;;;20.80;93.90;;;;;;5013979;28;20143;-61
2023/09/15 06:25:51;;;;;;;30.27;26.90;;;20.80;94.10;;;;;;5012766;28;20072;-60
2023/09/15 06:28:16;;;;;;;29.48;24.73;;;20.80;94.50;;;;;;5002741;28;20049;-61
2023/09/15 06:30:42;;;;;;;30.00;24.38;;;20.80;95.00;;;;;;5008805;28;20034;-61
2023/09/15 06:33:08;;;;;;;25.63;22.92;;;20.80;94.90;;;;;;5011323;28;20466;-61
2023/09/15 06:35:35;;;;;;;25.58;22.98;;;20.90;95.40;;;;;;5011941;28;20032;-61
2023/09/15 06:38:01;;;;;;;25.52;22.83;;;21.00;95.40;;;;;;5002402;28;20023;-60
2023/09/15 06:40:28;;;;;;;25.60;22.58;;;21.10;95.10;;;;;;5007254;28;20525;-59
2023/09/15 06:42:54;;;;;;;25.15;22.05;;;21.20;94.90;;;;;;5002063;28;20042;-61
2023/09/15 06:45:19;;;;;;;24.50;21.50;;;21.20;94.30;;;;;;5001630;28;20077;-61
2023/09/15 06:47:45;;;;;;;24.92;22.33;;;21.30;93.60;;;;;;4996724;28;20442;-61
2023/09/15 06:50:10;;;;;;;23.55;21.15;;;21.40;93.60;;;;;;5005209;28;20125;-61
2023/09/15 06:52:36;;;;;;;25.63;22.80;;;21.40;93.20;;;;;;5003813;28;20068;-61
2023/09/15 06:55:02;;;;;;;24.45;21.80;;;21.50;93.20;;;;;;4995515;28;20471;-61
2023/09/15 06:57:28;;;;;;;24.35;21.75;;;21.50;93.00;;;;;;4981990;28;20398;-61
2023/09/15 06:59:53;;;;;;;24.25;21.75;;;21.60;92.80;;;;;;4981101;28;20117;-60
2023/09/15 07:02:19;;;;;;;27.30;21.60;;;21.70;92.60;;;;;;4982725;28;20031;-61
2023/09/15 07:04:45;;;;;;;25.70;22.70;;;21.80;92.70;;;;;;4982719;28;20034;-59
2023/09/15 07:07:10;;;;;;;21.50;19.20;;;21.80;92.20;;;;;;4979396;28;20089;-60
2023/09/15 07:09:36;;;;;;;18.77;16.88;;;21.80;91.70;;;;;;4983064;28;20030;-60
2023/09/15 07:12:03;;;;;;;19.33;17.33;;;21.70;91.30;;;;;;4983686;28;20065;-60
2023/09/15 07:14:29;;;;;;;18.08;16.27;;;21.70;91.20;;;;;;4977999;28;20026;-60
2023/09/15 07:16:55;;;;;;;18.83;16.90;;;21.70;91.10;;;;;;4985772;28;20041;-60
2023/09/15 07:19:20;;;;;;;18.42;16.58;;;21.70;91.00;;;;;;4985573;28;20026;-60
2023/09/15 07:21:47;;;;;;;18.90;17.08;;;21.70;90.80;;;;;;4985731;28;20474;-58
2023/09/15 07:24:12;;;;;;;18.45;16.65;;;21.70;90.80;;;;;;4984945;28;20081;-60
2023/09/15 07:26:38;;;;;;;17.77;16.17;;;21.70;90.70;;;;;;4983212;28;20026;-60
2023/09/15 07:29:04;;;;;;;17.77;15.93;;;21.70;90.70;;;;;;4985130;28;20030;-60
2023/09/15 07:31:35;;;;;;;16.13;14.52;;;21.70;90.50;;;;;;4981643;28;20019;-60
2023/09/15 07:34:01;;;;;;;16.08;14.48;;;21.80;90.20;;;;;;4984897;28;20041;-60
2023/09/15 07:36:27;;;;;;;16.13;14.52;;;21.80;90.00;;;;;;4980795;28;20459;-60
2023/09/15 07:38:55;;;;;;;15.05;13.45;;;21.80;90.00;;;;;;4982623;28;20034;-60
2023/09/15 07:41:21;;;;;;;14.60;13.10;;;21.80;89.90;;;;;;4987245;28;20058;-60
2023/09/15 07:43:47;;;;;;;14.65;13.15;;;21.80;89.70;;;;;;4981347;28;20454;-60
2023/09/15 07:46:15;;;;;;;13.80;12.50;;;21.80;89.70;;;;;;4984582;28;20045;-59
2023/09/15 07:48:42;;;;;;;13.73;12.43;;;21.80;89.60;;;;;;4984148;28;20027;-60
2023/09/15 07:51:08;;;;;;;13.43;12.10;;;21.80;89.30;;;;;;4982590;28;20026;-59
2023/09/15 07:53:33;;;;;;;14.48;13.07;;;21.80;89.30;;;;;;4982231;28;20049;-59
2023/09/15 07:55:59;;;;;;;13.27;11.80;;;21.80;89.10;;;;;;4980951;28;20049;-60
2023/09/15 07:58:25;;;;;;;12.65;11.50;;;21.80;89.10;;;;;;4991738;28;20042;-60
2023/09/15 08:00:50;;;;;;;12.75;11.48;;;21.80;89.00;;;;;;4991951;28;20030;-60
2023/09/15 08:03:16;;;;;;;12.40;11.13;;;21.80;89.10;;;;;;4992110;28;20394;-60
2023/09/15 08:05:42;;;;;;;11.45;10.35;;;21.80;89.00;;;;;;4991898;28;20033;-60
2023/09/15 08:08:08;;;;;;;11.60;10.48;;;21.80;88.80;;;;;;4991496;28;20027;-60
2023/09/15 08:10:34;;;;;;;12.00;10.80;;;21.80;88.60;;;;;;4980464;28;20039;-60
2023/09/15 08:12:59;;;;;;;11.52;10.50;;;21.80;88.50;;;;;;4979122;28;20019;-60
2023/09/15 08:15:25;;;;;;;12.48;10.77;;;21.80;88.60;;;;;;4992505;28;20022;-60
2023/09/15 08:17:51;;;;;;;10.88;9.88;;;21.90;88.30;;;;;;4991329;28;20041;-60
2023/09/15 08:20:17;;;;;;;12.48;11.27;;;21.90;88.30;;;;;;4990341;28;20080;-60
2023/09/15 08:22:43;;;;;;;10.48;9.48;;;22.00;88.60;;;;;;4991418;28;20030;-60
2023/09/15 08:25:13;;;;;;;11.77;10.57;;;22.00;88.10;;;;;;4987664;28;20030;-60
2023/09/15 08:27:38;;;;;;;11.95;10.75;;;22.10;87.70;;;;;;4984815;28;20026;-60
2023/09/15 08:30:06;;;;;;;11.82;10.75;;;22.20;87.70;;;;;;4989991;28;20433;-60
2023/09/15 08:32:32;;;;;;;12.20;11.00;;;22.20;87.60;;;;;;4974677;28;20398;-60
2023/09/15 08:34:58;;;;;;;10.02;9.13;;;22.30;87.40;;;;;;4989982;28;20023;-60
2023/09/15 08:37:24;;;;;;;11.10;10.10;;;22.30;86.90;;;;;;4992969;28;20018;-60
2023/09/15 08:39:49;;;;;;;10.82;9.52;;;22.40;86.60;;;;;;4997636;28;20032;-60
2023/09/15 08:42:26;;;;;;;11.68;10.57;;;22.40;86.40;;;;;;4991705;28;20581;-59
2023/09/15 08:44:53;;;;;;;11.52;10.35;;;22.40;86.00;;;;;;4992236;28;20030;-61
2023/09/15 08:47:23;;;;;;;12.38;11.18;;;22.40;85.80;;;;;;4989942;28;20379;-61
2023/09/15 08:49:51;;;;;;;13.13;11.63;;;22.40;85.50;;;;;;4987366;28;20113;-60
2023/09/15 08:52:18;;;;;;;12.23;11.02;;;22.40;85.20;;;;;;4988680;28;20113;-61
2023/09/15 08:54:45;;;;;;;12.77;11.57;;;22.30;85.00;;;;;;4997959;28;20046;-60
2023/09/15 08:57:11;;;;;;;12.75;11.30;;;22.30;84.80;;;;;;5018340;28;20033;-61
2023/09/15 08:59:38;;;;;;;12.70;11.40;;;22.30;84.80;;;;;;5018286;28;20037;-60
2023/09/15 09:02:04;;;;;;;11.48;10.38;;;22.30;85.00;;;;;;5021936;28;20026;-61
2023/09/15 09:04:30;;;;;;;12.30;11.10;;;22.20;84.60;;;;;;5011219;28;20373;-60
2023/09/15 09:06:58;;;;;;;12.82;11.30;;;22.20;84.90;;;;;;5003334;28;20034;-60
2023/09/15 09:09:24;;;;;;;12.60;11.40;;;22.10;85.30;;;;;;5005487;28;20034;-61
2023/09/15 09:11:49;;;;;;;12.07;10.88;;;22.10;85.30;;;;;;5006606;28;20030;-61
2023/09/15 09:14:15;;;;;;;12.43;9.80;;;22.10;85.40;;;;;;5006682;28;20391;-60
2023/09/15 09:16:46;;;;;;;10.95;9.85;;;22.20;85.10;;;;;;5011742;28;20497;-60
2023/09/15 09:19:13;;;;;;;13.45;11.70;;;22.20;85.00;;;;;;5006250;28;20116;-61
2023/09/15 09:21:39;;;;;;;12.38;10.57;;;22.20;84.80;;;;;;5012367;28;20014;-60
2023/09/15 09:24:05;;;;;;;13.30;12.00;;;22.20;84.70;;;;;;5010067;28;20033;-61
2023/09/15 09:26:31;;;;;;;15.65;13.02;;;22.20;85.00;;;;;;5000225;28;20088;-59
2023/09/15 09:28:57;;;;;;;14.10;12.70;;;22.20;85.10;;;;;;4998529;28;20030;-61
2023/09/15 09:31:27;;;;;;;14.07;12.52;;;22.20;85.30;;;;;;5003563;28;20494;-60
2023/09/15 09:33:54;;;;;;;13.68;12.38;;;22.20;85.20;;;;;;5011490;28;20335;-60
2023/09/15 09:36:20;;;;;;;13.40;12.02;;;22.20;85.40;;;;;;4997664;28;20100;-60
2023/09/15 09:38:48;;;;;;;14.35;12.85;;;22.10;85.70;;;;;;5016688;28;20034;-59
2023/09/15 09:41:18;;;;;;;14.90;13.30;;;22.10;85.70;;;;;;5002565;28;20029;-60
2023/09/15 09:43:48;;;;;;;13.90;12.50;;;22.10;86.20;;;;;;5008800;28;20505;-60
2023/09/15 09:46:16;;;;;;;13.85;12.55;;;22.10;85.80;;;;;;5007009;28;20452;-61
2023/09/15 09:48:42;;;;;;;13.43;12.13;;;22.00;86.00;;;;;;5007660;28;20063;-60
2023/09/15 09:51:08;;;;;;;14.60;13.05;;;22.00;85.90;;;;;;5004515;28;20030;-59
2023/09/15 09:53:35;;;;;;;13.80;12.40;;;22.00;86.20;;;;;;5004190;28;20041;-61
2023/09/15 09:56:04;;;;;;;13.02;11.73;;;22.00;86.10;;;;;;4988947;28;20545;-60
2023/09/15 09:58:35;;;;;;;13.20;11.80;;;22.00;86.00;;;;;;4985013;28;20023;-60
2023/09/15 10:01:04;;;;;;;13.45;12.25;;;22.00;86.20;;;;;;4991486;28;20034;-60
2023/09/15 10:03:29;;;;;;;14.43;12.50;;;22.00;86.00;;;;;;4992510;28;20080;-61
2023/09/15 10:05:56;;;;;;;12.90;11.70;;;22.00;86.00;;;;;;4990557;28;20065;-60
2023/09/15 10:08:22;;;;;;;12.25;11.05;;;22.10;86.10;;;;;;4987273;28;20038;-61
2023/09/15 10:10:49;;;;;;;13.02;11.73;;;22.10;85.80;;;;;;4991891;28;20030;-60
2023/09/15 10:13:16;;;;;;;12.30;11.00;;;22.20;85.80;;;;;;4995335;28;20026;-59
2023/09/15 10:15:43;;;;;;;13.60;12.05;;;22.20;85.50;;;;;;4992339;28;20039;-60
2023/09/15 10:18:13;;;;;;;13.20;11.82;;;22.30;85.30;;;;;;4993043;28;20049;-58
2023/09/15 10:20:44;;;;;;;12.98;11.55;;;22.30;85.10;;;;;;4988565;28;20076;-60
2023/09/15 10:23:12;;;;;;;12.73;11.43;;;22.30;84.80;;;;;;4991581;28;20291;-60
2023/09/15 10:25:44;;;;;;;13.00;11.73;;;22.40;84.90;;;;;;4987375;28;20034;-61
2023/09/15 10:28:14;;;;;;;12.40;11.18;;;22.40;84.60;;;;;;4988923;28;20487;-60
2023/09/15 10:30:41;;;;;;;13.93;12.43;;;22.50;84.20;;;;;;4982728;28;20113;-61
2023/09/15 10:33:07;;;;;;;13.38;12.07;;;22.50;84.20;;;;;;4983450;28;20330;-60
2023/09/15 10:35:33;;;;;;;12.85;11.55;;;22.60;83.90;;;;;;4991774;28;20030;-59
2023/09/15 10:38:03;;;;;;;14.13;12.63;;;22.60;83.90;;;;;;4987966;28;20026;-60
2023/09/15 10:40:46;;;;;;;14.02;12.10;;;22.60;83.80;;;;;;4983543;28;20085;-60
2023/09/15 10:43:13;;;;;;;13.68;11.82;;;22.70;83.70;;;;;;4986038;28;20101;-60
2023/09/15 10:45:38;;;;;;;14.05;12.65;;;22.70;83.80;;;;;;4986938;28;20030;-60
2023/09/15 10:48:04;;;;;;;14.07;11.93;;;22.70;83.80;;;;;;4995218;28;20038;-60
2023/09/15 10:50:39;;;;;;;12.82;11.45;;;22.70;83.80;;;;;;4989668;28;20152;-60
2023/09/15 10:53:09;;;;;;;12.55;11.35;;;22.80;83.50;;;;;;4988549;28;20534;-60
2023/09/15 10:55:36;;;;;;;11.18;10.07;;;22.80;83.40;;;;;;4989495;28;20046;-60
2023/09/15 10:58:03;;;;;;;11.70;10.45;;;22.90;83.20;;;;;;4992002;28;20034;-59
2023/09/15 11:00:32;;;;;;;11.35;10.15;;;22.90;82.80;;;;;;4988849;28;20034;-60
2023/09/15 11:02:58;;;;;;;10.85;9.30;;;22.90;82.20;;;;;;4989676;28;20030;-60
2023/09/15 11:05:26;;;;;;;10.77;9.77;;;22.90;82.00;;;;;;4985012;28;20104;-59
2023/09/15 11:07:55;;;;;;;11.75;10.55;;;22.90;81.70;;;;;;4984604;28;20034;-60
2023/09/15 11:10:30;;;;;;;12.85;10.02;;;22.90;81.60;;;;;;4978490;28;20113;-60
2023/09/15 11:13:03;;;;;;;10.55;9.50;;;22.80;81.50;;;;;;4983278;28;20030;-61
2023/09/15 11:15:29;;;;;;;11.55;10.27;;;22.80;81.60;;;;;;4984047;28;21967;-60
2023/09/15 11:17:55;;;;;;;11.60;10.45;;;22.80;82.00;;;;;;4981296;28;20061;-60
2023/09/15 11:20:21;;;;;;;11.52;10.43;;;22.70;82.00;;;;;;4981581;28;20030;-60
2023/09/15 11:22:47;;;;;;;12.52;11.25;;;22.70;82.30;;;;;;4979964;28;20041;-59
2023/09/15 11:25:15;;;;;;;11.70;10.60;;;22.70;82.40;;;;;;4982933;28;20034;-60
2023/09/15 11:27:41;;;;;;;12.32;11.10;;;22.70;82.60;;;;;;4990353;28;20034;-60
2023/09/15 11:30:07;;;;;;;12.45;11.25;;;22.60;82.70;;;;;;4984601;28;20073;-58
2023/09/15 11:32:34;;;;;;;12.88;11.57;;;22.60;82.80;;;;;;4990022;28;21856;-58
2023/09/15 11:35:05;;;;;;;13.35;11.95;;;22.60;83.00;;;;;;4975383;28;20392;-59
2023/09/15 11:37:31;;;;;;;13.57;12.18;;;22.60;83.50;;;;;;4982189;28;20686;-59
2023/09/15 11:39:57;;;;;;;13.60;12.23;;;22.50;83.70;;;;;;4985222;28;20034;-58
2023/09/15 11:42:24;;;;;;;13.90;12.40;;;22.50;84.30;;;;;;4979887;28;20105;-59
2023/09/15 11:44:51;;;;;;;14.73;13.30;;;22.40;84.70;;;;;;4985059;28;20584;-59
2023/09/15 11:47:17;;;;;;;13.32;12.02;;;22.40;85.10;;;;;;4984371;28;20033;-57
2023/09/15 11:49:43;;;;;;;12.35;11.15;;;22.40;85.80;;;;;;4988595;28;20079;-59
2023/09/15 11:52:10;;;;;;;11.93;10.80;;;22.30;85.80;;;;;;4980022;28;20042;-61
2023/09/15 11:54:36;;;;;;;12.20;11.02;;;22.30;85.90;;;;;;4983603;28;20034;-60
2023/09/15 11:57:02;;;;;;;12.73;11.52;;;22.30;85.50;;;;;;4979400;28;20054;-61
2023/09/15 11:59:29;;;;;;;12.90;10.90;;;22.40;85.60;;;;;;4967323;28;20049;-59
2023/09/15 12:01:58;;;;;;;11.80;10.60;;;22.40;85.40;;;;;;4981570;28;20034;-57
2023/09/15 12:04:24;;;;;;;11.35;10.15;;;22.40;85.30;;;;;;4981481;28;20486;-60
2023/09/15 12:06:50;;;;;;;12.57;10.80;;;22.40;85.50;;;;;;4975416;28;20038;-60
2023/09/15 12:09:18;;;;;;;11.75;10.55;;;22.40;85.30;;;;;;4982700;28;20054;-60
2023/09/15 12:11:44;;;;;;;11.30;10.25;;;22.40;85.50;;;;;;4979924;28;20030;-60
2023/09/15 12:14:13;;;;;;;12.15;10.95;;;22.40;85.80;;;;;;4982934;28;20727;-60
2023/09/15 12:16:38;;;;;;;11.85;10.65;;;22.40;86.00;;;;;;4982483;28;20022;-60
2023/09/15 12:19:05;;;;;;;12.27;11.07;;;22.40;86.20;;;;;;4979127;28;20034;-61
2023/09/15 12:21:30;;;;;;;12.10;10.98;;;22.50;86.30;;;;;;4983660;28;20062;-57
2023/09/15 12:24:08;;;;;;;13.25;11.95;;;22.50;86.20;;;;;;4977860;28;20133;-57
2023/09/15 12:26:36;;;;;;;12.27;11.07;;;22.50;86.30;;;;;;4978388;28;20038;-58